sensor_id;sensor_type;location;lat;lon;timestamp;temperature;humidity
27306;DHT22;14792;50.886;6.468;2024-03-08T00:01:31;3.90;99.90
27306;DHT22;14792;50.886;6.468;2024-03-08T00:04:33;3.90;99.90
27306;DHT22;14792;50.886;6.468;2024-03-08T00:07:37;3.90;99.90
27306;DHT22;14792;50.886;6.468;2024-03-08T00:10:39;3.90;99.90
27306;DHT22;14792;50.886;6.468;2024-03-08T00:13:40;3.90;99.90
27306;DHT22;14792;50.886;6.468;2024-03-08T00:16:42;3.80;99.90
27306;DHT22;14792;50.886;6.468;2024-03-08T00:19:43;3.80;99.90
27306;DHT22;14792;50.886;6.468;2024-03-08T00:22:45;3.80;99.90
27306;DHT22;14792;50.886;6.468;2024-03-08T00:25:47;3.70;99.90
27306;DHT22;14792;50.886;6.468;2024-03-08T00:28:48;3.70;99.90
27306;DHT22;14792;50.886;6.468;2024-03-08T00:31:50;3.70;99.90
27306;DHT22;14792;50.886;6.468;2024-03-08T00:34:51;3.70;99.90
27306;DHT22;14792;50.886;6.468;2024-03-08T00:37:53;3.60;99.90
27306;DHT22;14792;50.886;6.468;2024-03-08T00:40:55;3.60;99.90
27306;DHT22;14792;50.886;6.468;2024-03-08T00:43:56;3.50;99.90
27306;DHT22;14792;50.886;6.468;2024-03-08T00:46:58;3.50;99.90
27306;DHT22;14792;50.886;6.468;2024-03-08T00:49:59;3.40;99.90
27306;DHT22;14792;50.886;6.468;2024-03-08T00:53:01;3.40;99.90
27306;DHT22;14792;50.886;6.468;2024-03-08T00:56:03;3.40;99.90
27306;DHT22;14792;50.886;6.468;2024-03-08T00:59:04;3.30;99.90
27306;DHT22;14792;50.886;6.468;2024-03-08T01:02:06;3.30;99.90
27306;DHT22;14792;50.886;6.468;2024-03-08T01:05:08;3.20;99.90
27306;DHT22;14792;50.886;6.468;2024-03-08T01:08:09;3.20;99.90
27306;DHT22;14792;50.886;6.468;2024-03-08T01:11:12;3.10;99.90
27306;DHT22;14792;50.886;6.468;2024-03-08T01:14:12;3.10;99.90
27306;DHT22;14792;50.886;6.468;2024-03-08T01:17:14;3.10;99.90
27306;DHT22;14792;50.886;6.468;2024-03-08T01:20:15;3.10;99.90
27306;DHT22;14792;50.886;6.468;2024-03-08T01:23:17;3.10;99.90
27306;DHT22;14792;50.886;6.468;2024-03-08T01:26:19;3.00;99.90
27306;DHT22;14792;50.886;6.468;2024-03-08T01:29:20;3.00;99.90
27306;DHT22;14792;50.886;6.468;2024-03-08T01:32:22;2.90;99.90
27306;DHT22;14792;50.886;6.468;2024-03-08T01:35:23;2.90;99.90
27306;DHT22;14792;50.886;6.468;2024-03-08T01:38:25;2.90;99.90
27306;DHT22;14792;50.886;6.468;2024-03-08T01:41:27;2.90;99.90
27306;DHT22;14792;50.886;6.468;2024-03-08T01:44:28;2.80;99.90
27306;DHT22;14792;50.886;6.468;2024-03-08T01:47:30;2.80;99.90
27306;DHT22;14792;50.886;6.468;2024-03-08T01:50:31;2.80;99.90
27306;DHT22;14792;50.886;6.468;2024-03-08T01:53:33;2.70;99.90
27306;DHT22;14792;50.886;6.468;2024-03-08T01:56:35;2.70;99.90
27306;DHT22;14792;50.886;6.468;2024-03-08T01:59:36;2.70;99.90
27306;DHT22;14792;50.886;6.468;2024-03-08T02:02:38;2.70;99.90
27306;DHT22;14792;50.886;6.468;2024-03-08T02:05:40;2.60;99.90
27306;DHT22;14792;50.886;6.468;2024-03-08T02:08:44;2.50;99.90
27306;DHT22;14792;50.886;6.468;2024-03-08T02:11:45;2.60;99.90
27306;DHT22;14792;50.886;6.468;2024-03-08T02:14:47;2.50;99.90
27306;DHT22;14792;50.886;6.468;2024-03-08T02:17:48;2.60;99.90
27306;DHT22;14792;50.886;6.468;2024-03-08T02:20:53;2.50;99.90
27306;DHT22;14792;50.886;6.468;2024-03-08T02:23:54;2.50;99.90
27306;DHT22;14792;50.886;6.468;2024-03-08T02:26:56;2.50;99.90
27306;DHT22;14792;50.886;6.468;2024-03-08T02:29:57;2.50;99.90
27306;DHT22;14792;50.886;6.468;2024-03-08T02:32:59;2.50;99.90
27306;DHT22;14792;50.886;6.468;2024-03-08T02:36:02;2.40;99.90
27306;DHT22;14792;50.886;6.468;2024-03-08T02:39:04;2.40;99.90
27306;DHT22;14792;50.886;6.468;2024-03-08T02:42:05;2.30;99.90
27306;DHT22;14792;50.886;6.468;2024-03-08T02:45:07;2.30;99.90
27306;DHT22;14792;50.886;6.468;2024-03-08T02:48:09;2.30;99.90
27306;DHT22;14792;50.886;6.468;2024-03-08T02:51:10;2.30;99.90
27306;DHT22;14792;50.886;6.468;2024-03-08T02:54:12;2.30;99.90
27306;DHT22;14792;50.886;6.468;2024-03-08T02:57:14;2.30;99.90
27306;DHT22;14792;50.886;6.468;2024-03-08T03:00:15;2.20;99.90
27306;DHT22;14792;50.886;6.468;2024-03-08T03:03:17;2.20;99.90
27306;DHT22;14792;50.886;6.468;2024-03-08T03:06:18;2.20;99.90
27306;DHT22;14792;50.886;6.468;2024-03-08T03:09:20;2.10;99.90
27306;DHT22;14792;50.886;6.468;2024-03-08T03:12:21;2.20;99.90
27306;DHT22;14792;50.886;6.468;2024-03-08T03:15:23;2.10;99.90
27306;DHT22;14792;50.886;6.468;2024-03-08T03:18:25;2.20;99.90
27306;DHT22;14792;50.886;6.468;2024-03-08T03:21:28;2.10;99.90
27306;DHT22;14792;50.886;6.468;2024-03-08T03:24:28;2.00;99.90
27306;DHT22;14792;50.886;6.468;2024-03-08T03:27:29;2.00;99.90
27306;DHT22;14792;50.886;6.468;2024-03-08T03:30:31;2.00;99.90
27306;DHT22;14792;50.886;6.468;2024-03-08T03:33:35;2.00;99.90
27306;DHT22;14792;50.886;6.468;2024-03-08T03:36:37;2.00;99.90
27306;DHT22;14792;50.886;6.468;2024-03-08T03:39:39;2.00;99.90
27306;DHT22;14792;50.886;6.468;2024-03-08T03:42:52;2.00;99.90
27306;DHT22;14792;50.886;6.468;2024-03-08T03:45:53;2.00;99.90
27306;DHT22;14792;50.886;6.468;2024-03-08T03:48:55;1.90;99.90
27306;DHT22;14792;50.886;6.468;2024-03-08T03:51:57;2.00;99.90
27306;DHT22;14792;50.886;6.468;2024-03-08T03:54:58;2.00;99.90
27306;DHT22;14792;50.886;6.468;2024-03-08T03:58:00;2.00;99.90
27306;DHT22;14792;50.886;6.468;2024-03-08T04:01:04;2.10;99.90
27306;DHT22;14792;50.886;6.468;2024-03-08T04:04:03;1.90;99.90
27306;DHT22;14792;50.886;6.468;2024-03-08T04:07:05;1.90;99.90
27306;DHT22;14792;50.886;6.468;2024-03-08T04:10:07;1.90;99.90
27306;DHT22;14792;50.886;6.468;2024-03-08T04:13:08;1.90;99.90
27306;DHT22;14792;50.886;6.468;2024-03-08T04:16:09;1.80;99.90
27306;DHT22;14792;50.886;6.468;2024-03-08T04:19:11;1.80;99.90
27306;DHT22;14792;50.886;6.468;2024-03-08T04:22:13;1.80;99.90
27306;DHT22;14792;50.886;6.468;2024-03-08T04:25:14;1.80;99.90
27306;DHT22;14792;50.886;6.468;2024-03-08T04:28:16;1.80;99.90
27306;DHT22;14792;50.886;6.468;2024-03-08T04:31:17;1.80;99.90
27306;DHT22;14792;50.886;6.468;2024-03-08T04:34:22;1.80;99.90
27306;DHT22;14792;50.886;6.468;2024-03-08T04:37:20;1.80;99.90
27306;DHT22;14792;50.886;6.468;2024-03-08T04:40:25;1.90;99.90
27306;DHT22;14792;50.886;6.468;2024-03-08T04:43:26;1.80;99.90
27306;DHT22;14792;50.886;6.468;2024-03-08T04:46:28;1.90;99.90
27306;DHT22;14792;50.886;6.468;2024-03-08T04:49:29;1.80;99.90
27306;DHT22;14792;50.886;6.468;2024-03-08T04:52:31;1.90;99.90
27306;DHT22;14792;50.886;6.468;2024-03-08T04:55:33;1.90;99.90
27306;DHT22;14792;50.886;6.468;2024-03-08T04:58:37;1.80;99.90
27306;DHT22;14792;50.886;6.468;2024-03-08T05:01:39;1.90;99.90
27306;DHT22;14792;50.886;6.468;2024-03-08T05:04:40;1.90;99.90
27306;DHT22;14792;50.886;6.468;2024-03-08T05:07:42;1.90;99.90
27306;DHT22;14792;50.886;6.468;2024-03-08T05:10:43;2.00;99.90
27306;DHT22;14792;50.886;6.468;2024-03-08T05:13:45;1.90;99.90
27306;DHT22;14792;50.886;6.468;2024-03-08T05:16:47;1.80;99.90
27306;DHT22;14792;50.886;6.468;2024-03-08T05:19:48;1.70;99.90
27306;DHT22;14792;50.886;6.468;2024-03-08T05:22:50;1.70;99.90
27306;DHT22;14792;50.886;6.468;2024-03-08T05:25:51;1.70;99.90
27306;DHT22;14792;50.886;6.468;2024-03-08T05:28:53;1.70;99.90
27306;DHT22;14792;50.886;6.468;2024-03-08T05:31:55;1.70;99.90
27306;DHT22;14792;50.886;6.468;2024-03-08T05:34:56;1.70;99.90
27306;DHT22;14792;50.886;6.468;2024-03-08T05:37:58;1.80;99.90
27306;DHT22;14792;50.886;6.468;2024-03-08T05:41:02;1.60;99.90
27306;DHT22;14792;50.886;6.468;2024-03-08T05:44:01;1.60;99.90
27306;DHT22;14792;50.886;6.468;2024-03-08T05:47:03;1.60;99.90
27306;DHT22;14792;50.886;6.468;2024-03-08T05:50:04;1.60;99.90
27306;DHT22;14792;50.886;6.468;2024-03-08T05:53:06;1.50;99.90
27306;DHT22;14792;50.886;6.468;2024-03-08T05:56:07;1.60;99.90
27306;DHT22;14792;50.886;6.468;2024-03-08T05:59:09;1.60;99.90
27306;DHT22;14792;50.886;6.468;2024-03-08T06:02:11;1.60;99.90
27306;DHT22;14792;50.886;6.468;2024-03-08T06:05:12;1.60;99.90
27306;DHT22;14792;50.886;6.468;2024-03-08T06:08:14;1.60;99.90
27306;DHT22;14792;50.886;6.468;2024-03-08T06:11:16;1.70;99.90
27306;DHT22;14792;50.886;6.468;2024-03-08T06:14:17;1.60;99.90
27306;DHT22;14792;50.886;6.468;2024-03-08T06:17:19;1.60;99.90
27306;DHT22;14792;50.886;6.468;2024-03-08T06:20:20;1.60;99.90
27306;DHT22;14792;50.886;6.468;2024-03-08T06:23:22;1.60;99.90
27306;DHT22;14792;50.886;6.468;2024-03-08T06:26:24;1.70;99.90
27306;DHT22;14792;50.886;6.468;2024-03-08T06:29:25;1.70;99.90
27306;DHT22;14792;50.886;6.468;2024-03-08T06:32:27;1.70;99.90
27306;DHT22;14792;50.886;6.468;2024-03-08T06:35:28;1.70;99.90
27306;DHT22;14792;50.886;6.468;2024-03-08T06:38:30;1.70;99.90
27306;DHT22;14792;50.886;6.468;2024-03-08T06:41:31;1.80;99.90
27306;DHT22;14792;50.886;6.468;2024-03-08T06:44:33;1.80;99.90
27306;DHT22;14792;50.886;6.468;2024-03-08T06:47:34;1.80;99.90
27306;DHT22;14792;50.886;6.468;2024-03-08T06:50:36;1.90;99.90
27306;DHT22;14792;50.886;6.468;2024-03-08T06:53:38;2.00;99.90
27306;DHT22;14792;50.886;6.468;2024-03-08T06:56:42;2.00;99.90
27306;DHT22;14792;50.886;6.468;2024-03-08T06:59:43;2.10;99.90
27306;DHT22;14792;50.886;6.468;2024-03-08T07:02:45;2.10;99.90
27306;DHT22;14792;50.886;6.468;2024-03-08T07:05:47;2.20;99.90
27306;DHT22;14792;50.886;6.468;2024-03-08T07:08:48;2.30;99.90
27306;DHT22;14792;50.886;6.468;2024-03-08T07:11:50;2.30;99.90
27306;DHT22;14792;50.886;6.468;2024-03-08T07:14:51;2.40;99.90
27306;DHT22;14792;50.886;6.468;2024-03-08T07:17:53;2.50;99.90
27306;DHT22;14792;50.886;6.468;2024-03-08T07:20:55;2.60;99.90
27306;DHT22;14792;50.886;6.468;2024-03-08T07:23:56;2.70;99.90
27306;DHT22;14792;50.886;6.468;2024-03-08T07:27:00;2.80;99.90
27306;DHT22;14792;50.886;6.468;2024-03-08T07:30:02;3.00;99.90
27306;DHT22;14792;50.886;6.468;2024-03-08T07:33:04;3.10;99.90
27306;DHT22;14792;50.886;6.468;2024-03-08T07:36:05;3.10;99.90
27306;DHT22;14792;50.886;6.468;2024-03-08T07:39:07;3.30;99.90
27306;DHT22;14792;50.886;6.468;2024-03-08T07:42:08;3.50;99.90
27306;DHT22;14792;50.886;6.468;2024-03-08T07:45:10;3.60;99.90
27306;DHT22;14792;50.886;6.468;2024-03-08T07:48:11;3.80;99.90
27306;DHT22;14792;50.886;6.468;2024-03-08T07:51:15;3.80;99.90
27306;DHT22;14792;50.886;6.468;2024-03-08T07:54:15;4.00;99.90
27306;DHT22;14792;50.886;6.468;2024-03-08T07:57:16;4.10;99.90
27306;DHT22;14792;50.886;6.468;2024-03-08T08:00:18;4.00;99.90
27306;DHT22;14792;50.886;6.468;2024-03-08T08:03:19;4.10;99.90
27306;DHT22;14792;50.886;6.468;2024-03-08T08:06:21;4.10;99.90
27306;DHT22;14792;50.886;6.468;2024-03-08T08:09:23;4.30;99.90
27306;DHT22;14792;50.886;6.468;2024-03-08T08:12:24;4.40;99.90
27306;DHT22;14792;50.886;6.468;2024-03-08T08:15:26;4.40;99.90
27306;DHT22;14792;50.886;6.468;2024-03-08T08:18:27;4.50;99.90
27306;DHT22;14792;50.886;6.468;2024-03-08T08:21:29;4.70;99.90
27306;DHT22;14792;50.886;6.468;2024-03-08T08:24:31;4.70;99.90
27306;DHT22;14792;50.886;6.468;2024-03-08T08:27:32;4.90;99.90
27306;DHT22;14792;50.886;6.468;2024-03-08T08:30:34;4.90;99.90
27306;DHT22;14792;50.886;6.468;2024-03-08T08:33:35;5.00;99.90
27306;DHT22;14792;50.886;6.468;2024-03-08T08:36:37;5.00;99.90
27306;DHT22;14792;50.886;6.468;2024-03-08T08:39:38;5.10;99.90
27306;DHT22;14792;50.886;6.468;2024-03-08T08:42:40;5.30;99.90
27306;DHT22;14792;50.886;6.468;2024-03-08T08:45:42;5.20;99.90
27306;DHT22;14792;50.886;6.468;2024-03-08T08:48:44;5.40;99.90
27306;DHT22;14792;50.886;6.468;2024-03-08T08:51:48;5.60;99.90
27306;DHT22;14792;50.886;6.468;2024-03-08T08:54:46;5.70;99.90
27306;DHT22;14792;50.886;6.468;2024-03-08T08:57:48;5.80;99.90
27306;DHT22;14792;50.886;6.468;2024-03-08T09:00:50;5.80;99.90
27306;DHT22;14792;50.886;6.468;2024-03-08T09:03:51;5.80;99.90
27306;DHT22;14792;50.886;6.468;2024-03-08T09:06:53;6.00;99.90
27306;DHT22;14792;50.886;6.468;2024-03-08T09:09:54;6.10;99.90
27306;DHT22;14792;50.886;6.468;2024-03-08T09:12:56;6.00;99.90
27306;DHT22;14792;50.886;6.468;2024-03-08T09:15:57;6.40;99.90
27306;DHT22;14792;50.886;6.468;2024-03-08T09:18:59;6.50;99.90
27306;DHT22;14792;50.886;6.468;2024-03-08T09:22:01;6.50;99.90
27306;DHT22;14792;50.886;6.468;2024-03-08T09:25:02;6.70;99.90
27306;DHT22;14792;50.886;6.468;2024-03-08T09:28:04;6.70;99.90
27306;DHT22;14792;50.886;6.468;2024-03-08T09:31:05;6.90;99.90
27306;DHT22;14792;50.886;6.468;2024-03-08T09:34:07;6.90;99.90
27306;DHT22;14792;50.886;6.468;2024-03-08T09:37:09;6.90;99.90
27306;DHT22;14792;50.886;6.468;2024-03-08T09:40:10;7.20;99.90
27306;DHT22;14792;50.886;6.468;2024-03-08T09:43:12;7.30;99.90
27306;DHT22;14792;50.886;6.468;2024-03-08T09:46:14;7.30;99.90
27306;DHT22;14792;50.886;6.468;2024-03-08T09:49:15;7.40;99.90
27306;DHT22;14792;50.886;6.468;2024-03-08T09:52:17;7.40;99.90
27306;DHT22;14792;50.886;6.468;2024-03-08T09:55:18;7.40;99.90
27306;DHT22;14792;50.886;6.468;2024-03-08T09:58:20;7.60;99.90
27306;DHT22;14792;50.886;6.468;2024-03-08T10:01:36;7.60;99.90
27306;DHT22;14792;50.886;6.468;2024-03-08T10:04:39;8.00;99.90
27306;DHT22;14792;50.886;6.468;2024-03-08T10:07:39;8.10;99.90
27306;DHT22;14792;50.886;6.468;2024-03-08T10:10:41;8.20;99.90
27306;DHT22;14792;50.886;6.468;2024-03-08T10:13:42;8.20;99.90
27306;DHT22;14792;50.886;6.468;2024-03-08T10:16:44;8.30;99.90
27306;DHT22;14792;50.886;6.468;2024-03-08T10:19:51;8.40;99.90
27306;DHT22;14792;50.886;6.468;2024-03-08T10:22:53;8.50;99.90
27306;DHT22;14792;50.886;6.468;2024-03-08T10:25:54;8.50;99.90
27306;DHT22;14792;50.886;6.468;2024-03-08T10:28:56;8.50;99.90
27306;DHT22;14792;50.886;6.468;2024-03-08T10:31:58;8.50;99.90
27306;DHT22;14792;50.886;6.468;2024-03-08T10:34:59;8.70;99.90
27306;DHT22;14792;50.886;6.468;2024-03-08T10:38:01;8.70;99.90
27306;DHT22;14792;50.886;6.468;2024-03-08T10:41:03;9.00;99.90
27306;DHT22;14792;50.886;6.468;2024-03-08T10:44:11;9.00;99.90
27306;DHT22;14792;50.886;6.468;2024-03-08T10:47:26;9.10;99.90
27306;DHT22;14792;50.886;6.468;2024-03-08T10:50:28;9.00;99.90
27306;DHT22;14792;50.886;6.468;2024-03-08T10:53:29;9.10;99.90
27306;DHT22;14792;50.886;6.468;2024-03-08T10:56:31;9.60;99.90
27306;DHT22;14792;50.886;6.468;2024-03-08T10:59:32;9.40;99.90
27306;DHT22;14792;50.886;6.468;2024-03-08T11:02:34;9.60;99.90
27306;DHT22;14792;50.886;6.468;2024-03-08T11:05:39;9.90;99.90
27306;DHT22;14792;50.886;6.468;2024-03-08T11:08:40;9.80;99.90
27306;DHT22;14792;50.886;6.468;2024-03-08T11:11:42;9.60;99.90
27306;DHT22;14792;50.886;6.468;2024-03-08T11:14:44;9.60;99.90
27306;DHT22;14792;50.886;6.468;2024-03-08T11:17:45;10.00;99.90
27306;DHT22;14792;50.886;6.468;2024-03-08T11:20:46;10.00;99.90
27306;DHT22;14792;50.886;6.468;2024-03-08T11:24:06;10.10;99.90
27306;DHT22;14792;50.886;6.468;2024-03-08T11:27:04;10.10;99.90
27306;DHT22;14792;50.886;6.468;2024-03-08T11:30:06;10.30;99.90
27306;DHT22;14792;50.886;6.468;2024-03-08T11:33:13;10.20;99.90
27306;DHT22;14792;50.886;6.468;2024-03-08T11:36:21;10.20;99.90
27306;DHT22;14792;50.886;6.468;2024-03-08T11:39:22;10.30;99.90
27306;DHT22;14792;50.886;6.468;2024-03-08T11:42:24;10.30;99.90
27306;DHT22;14792;50.886;6.468;2024-03-08T11:45:25;10.30;99.90
27306;DHT22;14792;50.886;6.468;2024-03-08T11:48:27;10.50;99.90
27306;DHT22;14792;50.886;6.468;2024-03-08T11:51:28;10.80;99.90
27306;DHT22;14792;50.886;6.468;2024-03-08T11:54:30;10.70;99.90
27306;DHT22;14792;50.886;6.468;2024-03-08T11:57:32;10.70;99.90
27306;DHT22;14792;50.886;6.468;2024-03-08T12:00:33;10.80;99.90
27306;DHT22;14792;50.886;6.468;2024-03-08T12:03:40;10.90;99.90
27306;DHT22;14792;50.886;6.468;2024-03-08T12:06:40;10.50;99.90
27306;DHT22;14792;50.886;6.468;2024-03-08T12:09:41;10.70;99.90
27306;DHT22;14792;50.886;6.468;2024-03-08T12:12:45;10.80;99.90
27306;DHT22;14792;50.886;6.468;2024-03-08T12:15:44;10.80;99.90
27306;DHT22;14792;50.886;6.468;2024-03-08T12:18:45;11.10;99.90
27306;DHT22;14792;50.886;6.468;2024-03-08T12:21:47;11.00;99.90
27306;DHT22;14792;50.886;6.468;2024-03-08T12:25:02;11.10;99.90
27306;DHT22;14792;50.886;6.468;2024-03-08T12:27:50;11.00;99.90
27306;DHT22;14792;50.886;6.468;2024-03-08T12:30:52;11.10;99.90
27306;DHT22;14792;50.886;6.468;2024-03-08T12:33:54;11.30;99.90
27306;DHT22;14792;50.886;6.468;2024-03-08T12:36:55;11.40;99.90
27306;DHT22;14792;50.886;6.468;2024-03-08T12:39:57;11.50;99.90
27306;DHT22;14792;50.886;6.468;2024-03-08T12:42:58;11.50;99.90
27306;DHT22;14792;50.886;6.468;2024-03-08T12:46:00;11.60;99.90
27306;DHT22;14792;50.886;6.468;2024-03-08T12:49:01;11.90;99.90
27306;DHT22;14792;50.886;6.468;2024-03-08T12:52:03;11.70;99.90
27306;DHT22;14792;50.886;6.468;2024-03-08T12:55:04;11.90;99.90
27306;DHT22;14792;50.886;6.468;2024-03-08T12:58:06;12.10;99.90
27306;DHT22;14792;50.886;6.468;2024-03-08T13:01:08;12.00;99.90
27306;DHT22;14792;50.886;6.468;2024-03-08T13:04:09;11.90;99.90
27306;DHT22;14792;50.886;6.468;2024-03-08T13:07:11;11.90;99.90
27306;DHT22;14792;50.886;6.468;2024-03-08T13:10:13;11.90;99.90
27306;DHT22;14792;50.886;6.468;2024-03-08T13:13:14;12.00;99.90
27306;DHT22;14792;50.886;6.468;2024-03-08T13:16:16;12.30;99.90
27306;DHT22;14792;50.886;6.468;2024-03-08T13:19:17;12.30;99.90
27306;DHT22;14792;50.886;6.468;2024-03-08T13:22:19;12.30;99.90
27306;DHT22;14792;50.886;6.468;2024-03-08T13:25:20;12.30;99.90
27306;DHT22;14792;50.886;6.468;2024-03-08T13:28:22;12.20;99.90
27306;DHT22;14792;50.886;6.468;2024-03-08T13:31:24;12.20;99.90
27306;DHT22;14792;50.886;6.468;2024-03-08T13:34:25;12.40;99.90
27306;DHT22;14792;50.886;6.468;2024-03-08T13:37:27;12.30;99.90
27306;DHT22;14792;50.886;6.468;2024-03-08T13:40:28;12.30;99.90
27306;DHT22;14792;50.886;6.468;2024-03-08T13:43:30;12.70;99.90
27306;DHT22;14792;50.886;6.468;2024-03-08T13:46:32;12.90;99.90
27306;DHT22;14792;50.886;6.468;2024-03-08T13:49:33;12.70;99.90
27306;DHT22;14792;50.886;6.468;2024-03-08T13:52:35;12.80;99.90
27306;DHT22;14792;50.886;6.468;2024-03-08T13:55:36;13.00;99.90
27306;DHT22;14792;50.886;6.468;2024-03-08T13:58:38;12.70;99.90
27306;DHT22;14792;50.886;6.468;2024-03-08T14:01:39;12.60;99.90
27306;DHT22;14792;50.886;6.468;2024-03-08T14:04:41;13.00;99.90
27306;DHT22;14792;50.886;6.468;2024-03-08T14:07:43;12.90;99.90
27306;DHT22;14792;50.886;6.468;2024-03-08T14:10:44;12.70;99.90
27306;DHT22;14792;50.886;6.468;2024-03-08T14:13:46;12.70;99.90
27306;DHT22;14792;50.886;6.468;2024-03-08T14:16:47;12.80;99.90
27306;DHT22;14792;50.886;6.468;2024-03-08T14:19:52;12.90;99.90
27306;DHT22;14792;50.886;6.468;2024-03-08T14:22:56;12.80;99.90
27306;DHT22;14792;50.886;6.468;2024-03-08T14:25:58;12.60;99.90
27306;DHT22;14792;50.886;6.468;2024-03-08T14:29:00;12.70;99.90
27306;DHT22;14792;50.886;6.468;2024-03-08T14:32:01;12.70;99.90
27306;DHT22;14792;50.886;6.468;2024-03-08T14:35:03;12.70;99.90
27306;DHT22;14792;50.886;6.468;2024-03-08T14:38:04;12.60;99.90
27306;DHT22;14792;50.886;6.468;2024-03-08T14:41:06;12.40;99.90
27306;DHT22;14792;50.886;6.468;2024-03-08T14:44:07;12.70;99.90
27306;DHT22;14792;50.886;6.468;2024-03-08T14:47:09;12.60;99.90
27306;DHT22;14792;50.886;6.468;2024-03-08T14:50:11;12.70;99.90
27306;DHT22;14792;50.886;6.468;2024-03-08T14:53:12;12.70;99.90
27306;DHT22;14792;50.886;6.468;2024-03-08T14:56:14;12.80;99.90
27306;DHT22;14792;50.886;6.468;2024-03-08T14:59:18;13.00;99.90
27306;DHT22;14792;50.886;6.468;2024-03-08T15:02:20;12.80;99.90
27306;DHT22;14792;50.886;6.468;2024-03-08T15:05:21;12.90;99.90
27306;DHT22;14792;50.886;6.468;2024-03-08T15:08:23;12.60;99.90
27306;DHT22;14792;50.886;6.468;2024-03-08T15:11:25;12.60;99.90
27306;DHT22;14792;50.886;6.468;2024-03-08T15:14:26;12.40;99.90
27306;DHT22;14792;50.886;6.468;2024-03-08T15:17:28;12.40;99.90
27306;DHT22;14792;50.886;6.468;2024-03-08T15:20:29;12.50;99.90
27306;DHT22;14792;50.886;6.468;2024-03-08T15:23:31;12.40;99.90
27306;DHT22;14792;50.886;6.468;2024-03-08T15:26:33;12.40;99.90
27306;DHT22;14792;50.886;6.468;2024-03-08T15:29:34;12.50;99.90
27306;DHT22;14792;50.886;6.468;2024-03-08T15:32:36;12.40;99.90
27306;DHT22;14792;50.886;6.468;2024-03-08T15:35:37;12.10;99.90
27306;DHT22;14792;50.886;6.468;2024-03-08T15:38:39;12.00;99.90
27306;DHT22;14792;50.886;6.468;2024-03-08T15:41:41;12.20;99.90
27306;DHT22;14792;50.886;6.468;2024-03-08T15:44:42;12.00;99.90
27306;DHT22;14792;50.886;6.468;2024-03-08T15:47:44;12.00;99.90
27306;DHT22;14792;50.886;6.468;2024-03-08T15:50:45;11.80;99.90
27306;DHT22;14792;50.886;6.468;2024-03-08T15:53:47;11.90;99.90
27306;DHT22;14792;50.886;6.468;2024-03-08T15:56:48;11.70;99.90
27306;DHT22;14792;50.886;6.468;2024-03-08T15:59:50;11.70;99.90
27306;DHT22;14792;50.886;6.468;2024-03-08T16:02:52;11.80;99.90
27306;DHT22;14792;50.886;6.468;2024-03-08T16:05:53;11.70;99.90
27306;DHT22;14792;50.886;6.468;2024-03-08T16:08:55;11.60;99.90
27306;DHT22;14792;50.886;6.468;2024-03-08T16:11:59;11.30;99.90
27306;DHT22;14792;50.886;6.468;2024-03-08T16:15:01;11.30;99.90
27306;DHT22;14792;50.886;6.468;2024-03-08T16:18:02;11.20;99.90
27306;DHT22;14792;50.886;6.468;2024-03-08T16:21:04;11.10;99.90
27306;DHT22;14792;50.886;6.468;2024-03-08T16:24:05;11.10;99.90
27306;DHT22;14792;50.886;6.468;2024-03-08T16:27:07;10.90;99.90
27306;DHT22;14792;50.886;6.468;2024-03-08T16:30:09;10.80;99.90
27306;DHT22;14792;50.886;6.468;2024-03-08T16:33:10;10.70;99.90
27306;DHT22;14792;50.886;6.468;2024-03-08T16:36:12;10.60;99.90
27306;DHT22;14792;50.886;6.468;2024-03-08T16:39:13;10.50;99.90
27306;DHT22;14792;50.886;6.468;2024-03-08T16:42:15;10.40;99.90
27306;DHT22;14792;50.886;6.468;2024-03-08T16:45:17;10.30;99.90
27306;DHT22;14792;50.886;6.468;2024-03-08T16:48:18;10.20;99.90
27306;DHT22;14792;50.886;6.468;2024-03-08T16:51:20;10.10;99.90
27306;DHT22;14792;50.886;6.468;2024-03-08T16:54:21;10.00;99.90
27306;DHT22;14792;50.886;6.468;2024-03-08T16:57:23;10.00;99.90
27306;DHT22;14792;50.886;6.468;2024-03-08T17:00:25;9.90;99.90
27306;DHT22;14792;50.886;6.468;2024-03-08T17:03:29;9.80;99.90
27306;DHT22;14792;50.886;6.468;2024-03-08T17:06:30;9.80;99.90
27306;DHT22;14792;50.886;6.468;2024-03-08T17:09:32;9.70;99.90
27306;DHT22;14792;50.886;6.468;2024-03-08T17:12:34;9.60;99.90
27306;DHT22;14792;50.886;6.468;2024-03-08T17:15:35;9.50;99.90
27306;DHT22;14792;50.886;6.468;2024-03-08T17:18:37;9.40;99.90
27306;DHT22;14792;50.886;6.468;2024-03-08T17:21:38;9.40;99.90
27306;DHT22;14792;50.886;6.468;2024-03-08T17:24:40;9.30;99.90
27306;DHT22;14792;50.886;6.468;2024-03-08T17:27:44;9.20;99.90
27306;DHT22;14792;50.886;6.468;2024-03-08T17:30:46;9.20;99.90
27306;DHT22;14792;50.886;6.468;2024-03-08T17:33:47;9.10;99.90
27306;DHT22;14792;50.886;6.468;2024-03-08T17:36:49;9.10;99.90
27306;DHT22;14792;50.886;6.468;2024-03-08T17:39:51;9.00;99.90
27306;DHT22;14792;50.886;6.468;2024-03-08T17:42:53;9.00;99.90
27306;DHT22;14792;50.886;6.468;2024-03-08T17:45:54;9.00;99.90
27306;DHT22;14792;50.886;6.468;2024-03-08T17:48:55;8.90;99.90
27306;DHT22;14792;50.886;6.468;2024-03-08T17:51:57;8.80;99.90
27306;DHT22;14792;50.886;6.468;2024-03-08T17:54:59;8.80;99.90
27306;DHT22;14792;50.886;6.468;2024-03-08T17:58:00;8.70;99.90
27306;DHT22;14792;50.886;6.468;2024-03-08T18:01:02;8.60;99.90
27306;DHT22;14792;50.886;6.468;2024-03-08T18:04:03;8.60;99.90
27306;DHT22;14792;50.886;6.468;2024-03-08T18:07:05;8.60;99.90
27306;DHT22;14792;50.886;6.468;2024-03-08T18:10:07;8.50;99.90
27306;DHT22;14792;50.886;6.468;2024-03-08T18:13:08;8.40;99.90
27306;DHT22;14792;50.886;6.468;2024-03-08T18:16:20;8.40;99.90
27306;DHT22;14792;50.886;6.468;2024-03-08T18:19:21;8.40;99.90
27306;DHT22;14792;50.886;6.468;2024-03-08T18:22:23;8.30;99.90
27306;DHT22;14792;50.886;6.468;2024-03-08T18:25:25;8.20;99.90
27306;DHT22;14792;50.886;6.468;2024-03-08T18:28:26;8.20;99.90
27306;DHT22;14792;50.886;6.468;2024-03-08T18:31:28;8.20;99.90
27306;DHT22;14792;50.886;6.468;2024-03-08T18:34:29;8.10;99.90
27306;DHT22;14792;50.886;6.468;2024-03-08T18:37:31;8.10;99.90
27306;DHT22;14792;50.886;6.468;2024-03-08T18:40:33;8.10;99.90
27306;DHT22;14792;50.886;6.468;2024-03-08T18:43:34;8.00;99.90
27306;DHT22;14792;50.886;6.468;2024-03-08T18:46:36;8.00;99.90
27306;DHT22;14792;50.886;6.468;2024-03-08T18:49:37;8.00;99.90
27306;DHT22;14792;50.886;6.468;2024-03-08T18:52:39;7.90;99.90
27306;DHT22;14792;50.886;6.468;2024-03-08T18:55:40;7.90;99.90
27306;DHT22;14792;50.886;6.468;2024-03-08T18:58:42;7.80;99.90
27306;DHT22;14792;50.886;6.468;2024-03-08T19:01:44;7.90;99.90
27306;DHT22;14792;50.886;6.468;2024-03-08T19:04:45;7.80;99.90
27306;DHT22;14792;50.886;6.468;2024-03-08T19:07:48;7.80;99.90
27306;DHT22;14792;50.886;6.468;2024-03-08T19:10:48;7.80;99.90
27306;DHT22;14792;50.886;6.468;2024-03-08T19:13:50;7.70;99.90
27306;DHT22;14792;50.886;6.468;2024-03-08T19:16:52;7.80;99.90
27306;DHT22;14792;50.886;6.468;2024-03-08T19:19:53;7.70;99.90
27306;DHT22;14792;50.886;6.468;2024-03-08T19:22:55;7.70;99.90